Time;durP1;ratioP1;P1;durP2;ratioP2;P2;SDS_P1;SDS_P2;PMS_P1;PMS_P2;Temp;Humidity;BMP_temperature;BMP_pressure;BME280_temperature;BME280_humidity;BME280_pressure;Samples;Min_cycle;Max_cycle;Signal;HPM_P1;HPM_P2
2022/10/05 00:03:19;;;;;;;27.35;15.38;;;;;;;9.07;98.25;101047.92;3444701;85;34967;-84
2022/10/05 00:08:28;;;;;;;27.25;14.95;;;;;;;9.10;98.35;101034.06;3455158;84;98915;-84
2022/10/05 00:13:30;;;;;;;28.25;14.63;;;;;;;9.12;98.51;101041.36;3471390;84;34719;-84
2022/10/05 00:18:31;;;;;;;25.90;13.75;;;;;;;9.16;98.79;101032.65;3451858;84;98156;-84
2022/10/05 00:23:32;;;;;;;25.23;12.80;;;;;;;9.19;99.07;101024.50;3447076;85;27267;-84
2022/10/05 00:28:33;;;;;;;27.17;13.70;;;;;;;9.23;99.09;101000.68;3456786;84;98527;-84
2022/10/05 00:33:33;;;;;;;21.77;12.67;;;;;;;9.27;98.78;100993.30;3462130;84;26215;-84
2022/10/05 00:38:34;;;;;;;27.33;14.73;;;;;;;9.33;98.69;100993.85;3456245;84;98542;-84
2022/10/05 00:44:05;;;;;;;24.47;13.83;;;;;;;9.39;99.30;101000.67;3435522;85;32441;-84
2022/10/05 00:49:44;;;;;;;21.07;13.40;;;;;;;9.42;99.57;101003.50;3436086;85;34913;-84
2022/10/05 00:55:12;;;;;;;19.50;12.70;;;;;;;9.46;99.28;101011.27;3437959;85;99006;-84
2022/10/05 01:00:18;;;;;;;24.85;12.63;;;;;;;9.49;99.35;100996.80;3465168;84;35454;-84
2022/10/05 01:05:36;;;;;;;24.07;14.17;;;;;;;9.53;98.96;100991.38;3454985;83;98540;-84
2022/10/05 01:11:03;;;;;;;27.07;14.65;;;;;;;9.56;99.13;100998.92;3471491;83;34806;-84
2022/10/05 01:16:27;;;;;;;;;;;;;;;9.58;98.66;100989.17;3463060;83;98480;-84
2022/10/05 01:21:33;;;;;;;27.22;15.25;;;;;;;9.60;98.98;100994.32;3445391;84;35170;-84
2022/10/05 01:27:14;;;;;;;27.17;15.43;;;;;;;9.60;98.62;101005.31;3440768;83;98851;-84
2022/10/05 01:32:40;;;;;;;26.23;15.18;;;;;;;9.59;98.75;100993.52;3449516;84;34725;-84
2022/10/05 01:38:18;;;;;;;24.65;14.10;;;;;;;9.58;98.96;100985.05;3449060;84;98970;-84
2022/10/05 01:43:35;;;;;;;24.02;13.75;;;;;;;9.57;98.91;100984.84;3446998;84;34038;-84
2022/10/05 01:49:16;;;;;;;21.57;12.73;;;;;;;9.57;99.51;100988.96;3469574;84;34820;-84
2022/10/05 01:54:41;;;;;;;21.48;12.58;;;;;;;9.59;99.08;100980.37;3448294;84;98741;-84
2022/10/05 01:59:48;;;;;;;23.77;11.95;;;;;;;9.58;99.69;100967.75;3443858;84;35379;-85
2022/10/05 02:04:54;;;;;;;24.52;12.30;;;;;;;9.61;100.00;100964.31;3433740;83;98592;-84
2022/10/05 02:10:03;;;;;;;19.82;9.93;;;;;;;9.62;100.00;100972.77;3464887;85;25835;-85
2022/10/05 02:15:16;;;;;;;14.58;9.43;;;;;;;9.63;100.00;100957.87;3457436;84;98861;-86
2022/10/05 02:20:27;;;;;;;19.25;10.45;;;;;;;9.65;100.00;100939.87;3460447;85;34873;-85
2022/10/05 02:25:33;;;;;;;19.17;10.05;;;;;;;9.67;100.00;100948.57;3444152;83;98906;-86
2022/10/05 02:30:41;;;;;;;;;;;;;;;9.71;100.00;100954.14;3460699;85;25918;-85
2022/10/05 02:35:42;;;;;;;17.73;8.40;;;;;;;9.74;100.00;100968.52;3436606;84;84650;-85
2022/10/05 02:41:00;;;;;;;17.40;10.00;;;;;;;9.78;100.00;100979.03;3432464;85;27213;-86
2022/10/05 02:46:22;;;;;;;19.87;9.00;;;;;;;9.80;100.00;100969.27;3447815;85;99181;-86
2022/10/05 02:51:49;;;;;;;16.73;9.23;;;;;;;9.83;100.00;100965.02;3460890;85;35367;-85
2022/10/05 02:57:27;;;;;;;19.70;9.48;;;;;;;9.85;100.00;100960.75;3441010;84;98660;-85
2022/10/05 03:02:43;;;;;;;17.73;9.05;;;;;;;9.89;100.00;100940.20;3441194;85;33675;-85
2022/10/05 03:08:01;;;;;;;20.53;9.70;;;;;;;9.90;100.00;100929.42;3443008;83;98340;-85
2022/10/05 03:13:32;;;;;;;16.97;9.88;;;;;;;9.91;100.00;100937.88;3474483;85;34815;-85
2022/10/05 03:19:01;;;;;;;18.60;9.58;;;;;;;9.90;100.00;100943.17;3426134;85;98377;-86
2022/10/05 03:24:44;;;;;;;15.98;9.08;;;;;;;9.89;100.00;100966.33;3449512;83;98514;-84
2022/10/05 03:29:57;;;;;;;14.68;8.73;;;;;;;9.85;100.00;100955.81;3433119;85;35427;-85
2022/10/05 03:35:11;;;;;;;20.45;10.32;;;;;;;9.82;100.00;100945.55;3421382;84;98782;-84
2022/10/05 03:40:32;;;;;;;20.35;9.25;;;;;;;9.79;100.00;100940.77;3443903;85;35826;-85
2022/10/05 03:45:56;;;;;;;14.50;9.10;;;;;;;9.76;100.00;100937.38;3439312;85;98861;-85
2022/10/05 03:51:31;;;;;;;16.25;8.80;;;;;;;9.71;100.00;100936.27;3461392;85;35900;-84
2022/10/05 03:56:44;;;;;;;17.02;9.90;;;;;;;9.70;100.00;100946.46;3425807;84;98498;-84
2022/10/05 04:01:50;;;;;;;16.10;9.13;;;;;;;9.67;100.00;100941.70;3443574;85;33798;-85
2022/10/05 04:06:54;;;;;;;18.87;9.60;;;;;;;9.65;100.00;100931.63;3443669;85;98726;-84
2022/10/05 04:12:03;;;;;;;13.22;8.48;;;;;;;9.61;100.00;100933.52;3459048;85;34761;-84
2022/10/05 04:17:17;;;;;;;15.25;8.53;;;;;;;9.59;100.00;100933.65;3451117;84;98460;-84
2022/10/05 04:22:24;;;;;;;13.83;8.85;;;;;;;9.55;100.00;100932.17;3449004;85;35417;-84
2022/10/05 04:27:43;;;;;;;14.18;8.28;;;;;;;9.51;100.00;100936.00;3443773;83;98306;-85
2022/10/05 04:32:54;;;;;;;14.73;8.40;;;;;;;9.48;100.00;100936.14;3457905;85;34860;-84
2022/10/05 04:38:30;;;;;;;15.20;8.55;;;;;;;9.45;100.00;100945.67;3438678;84;98351;-84
2022/10/05 04:44:06;;;;;;;14.07;8.03;;;;;;;9.41;99.85;100941.47;3457945;84;34024;-84
2022/10/05 04:49:21;;;;;;;16.37;7.90;;;;;;;9.36;99.71;100945.86;3460549;85;33418;-84
2022/10/05 04:54:36;;;;;;;17.62;8.48;;;;;;;9.28;99.71;100937.22;3445523;84;98811;-84
2022/10/05 04:59:42;;;;;;;19.12;10.10;;;;;;;9.23;99.92;100937.52;3482824;84;35004;-85
2022/10/05 05:05:27;;;;;;;14.10;8.45;;;;;;;9.18;100.00;100931.48;3465515;84;98920;-85
2022/10/05 05:10:50;;;;;;;17.20;8.75;;;;;;;9.12;100.00;100939.20;3477443;84;32905;-85
2022/10/05 05:16:06;;;;;;;16.75;9.70;;;;;;;9.09;100.00;100923.42;3459146;83;98762;-85
2022/10/05 05:21:50;;;;;;;19.92;9.60;;;;;;;9.08;100.00;100921.02;3475635;84;35438;-85
2022/10/05 05:27:08;;;;;;;21.10;9.37;;;;;;;9.09;100.00;100921.23;3459079;84;98827;-85
2022/10/05 05:32:23;;;;;;;20.35;10.43;;;;;;;9.11;100.00;100926.59;3476087;84;34981;-85
2022/10/05 05:37:48;;;;;;;16.05;9.15;;;;;;;9.16;100.00;100928.30;3465525;83;98816;-86
2022/10/05 05:42:59;;;;;;;18.92;11.20;;;;;;;9.20;100.00;100929.16;3469238;84;35601;-85
2022/10/05 05:48:05;;;;;;;16.07;9.58;;;;;;;9.24;100.00;100933.61;3453940;84;98752;-86
2022/10/05 05:53:26;;;;;;;16.73;8.88;;;;;;;9.31;100.00;100935.70;3466429;84;26143;-85
2022/10/05 05:58:32;;;;;;;17.05;9.65;;;;;;;9.39;100.00;100937.48;3463118;84;98581;-85
2022/10/05 06:03:37;;;;;;;14.07;8.77;;;;;;;9.48;100.00;100925.73;3470639;83;25846;-86
2022/10/05 06:08:55;;;;;;;15.53;8.90;;;;;;;9.56;100.00;100930.23;3468883;84;34922;-86
2022/10/05 06:14:00;;;;;;;18.48;10.20;;;;;;;9.68;100.00;100925.42;3449542;84;98873;-85
2022/10/05 06:19:21;;;;;;;16.73;9.10;;;;;;;9.80;100.00;100928.04;3448870;84;31062;-85
2022/10/05 06:24:33;;;;;;;20.10;9.25;;;;;;;9.92;100.00;100927.12;3465872;84;98486;-85
2022/10/05 06:30:13;;;;;;;15.03;8.35;;;;;;;10.03;100.00;100926.17;3459183;84;35986;-86
2022/10/05 06:35:45;;;;;;;14.07;8.15;;;;;;;10.14;100.00;100923.09;3457076;83;98876;-85
2022/10/05 06:41:13;;;;;;;12.75;7.50;;;;;;;10.27;100.00;100911.37;3469258;83;33061;-86
2022/10/05 06:46:48;;;;;;;16.30;8.15;;;;;;;10.40;100.00;100919.67;3465121;83;99176;-85
2022/10/05 06:52:00;;;;;;;13.35;7.05;;;;;;;10.51;100.00;100904.97;3458003;84;36018;-85
2022/10/05 06:57:23;;;;;;;16.67;7.70;;;;;;;10.62;100.00;100904.59;3451852;84;98745;-86
2022/10/05 07:02:53;;;;;;;13.78;6.87;;;;;;;10.74;99.81;100903.63;3456920;85;35149;-86
2022/10/05 07:08:06;;;;;;;14.58;7.60;;;;;;;10.88;99.40;100910.18;3446951;84;98772;-85
2022/10/05 07:13:27;;;;;;;14.03;7.40;;;;;;;11.06;99.09;100908.52;3462688;85;34839;-85
2022/10/05 07:19:00;;;;;;;13.45;6.92;;;;;;;11.26;98.56;100903.14;3451812;85;98781;-88
2022/10/05 07:24:21;;;;;;;14.53;7.30;;;;;;;11.44;97.79;100906.95;3453194;84;98959;-86
2022/10/05 07:29:47;;;;;;;14.83;5.95;;;;;;;11.61;97.04;100894.64;3455063;85;34958;-85
2022/10/05 07:35:03;;;;;;;15.65;6.12;;;;;;;11.78;96.25;100910.64;3455010;83;98881;-86
2022/10/05 07:40:18;;;;;;;14.93;6.47;;;;;;;11.95;95.71;100917.75;3457206;85;35434;-85
2022/10/05 07:45:47;;;;;;;11.65;6.28;;;;;;;12.09;95.33;100919.33;3448471;83;98894;-86
2022/10/05 07:51:05;;;;;;;12.50;5.40;;;;;;;12.24;94.46;100918.34;3456012;84;34861;-86
2022/10/05 07:56:39;;;;;;;12.82;5.25;;;;;;;12.36;93.64;100912.56;3447473;85;99157;-87
2022/10/05 08:01:46;;;;;;;13.48;5.05;;;;;;;12.46;93.16;100906.38;3442164;84;34858;-85
2022/10/05 08:06:52;;;;;;;;;;;;;;;12.62;92.75;100913.03;3441645;84;99061;-86
2022/10/05 08:12:17;;;;;;;12.18;5.33;;;;;;;12.76;91.38;100911.20;3456298;84;25828;-85
2022/10/05 08:17:26;;;;;;;10.95;5.53;;;;;;;12.90;92.32;100921.03;3445398;84;99155;-87
2022/10/05 08:22:36;;;;;;;12.30;5.05;;;;;;;13.10;91.88;100916.91;3446129;85;34775;-86
2022/10/05 08:27:57;;;;;;;10.58;5.33;;;;;;;13.34;91.20;100916.30;3447219;84;98797;-86
2022/10/05 08:33:14;;;;;;;9.93;4.72;;;;;;;13.59;90.27;100913.13;3456317;85;34865;-83
2022/10/05 08:38:23;;;;;;;9.18;3.72;;;;;;;13.89;90.86;100912.31;3457605;85;98874;-86
2022/10/05 08:43:29;;;;;;;9.90;4.45;;;;;;;14.17;88.11;100926.28;3452921;85;34834;-85
2022/10/05 08:49:22;;;;;;;10.10;4.00;;;;;;;14.41;88.05;100932.56;3439391;85;98412;-86
2022/10/05 08:54:57;;;;;;;8.58;3.52;;;;;;;14.68;84.15;100923.33;3451849;84;98994;-86
2022/10/05 09:00:36;;;;;;;21.65;4.50;;;;;;;15.12;83.83;100919.63;3466540;84;34893;-85
2022/10/05 09:06:28;;;;;;;11.73;4.05;;;;;;;15.50;80.85;100904.40;3442403;84;99074;-87
2022/10/05 09:11:39;;;;;;;24.50;4.80;;;;;;;15.90;81.24;100891.99;3453240;84;34746;-87
2022/10/05 09:17:11;;;;;;;10.82;3.47;;;;;;;16.26;79.11;100892.06;3439618;84;98917;-85
2022/10/05 09:22:37;;;;;;;8.03;3.50;;;;;;;16.58;77.40;100899.67;3455187;85;42134;-85
2022/10/05 09:27:53;;;;;;;11.43;3.70;;;;;;;16.75;75.91;100899.57;3442323;84;98561;-87
2022/10/05 09:33:34;;;;;;;7.37;3.60;;;;;;;16.90;76.63;100898.88;3451654;84;25890;-86
2022/10/05 09:39:00;;;;;;;7.08;3.30;;;;;;;17.02;75.31;100890.84;3452876;84;98233;-87
2022/10/05 09:44:58;;;;;;;11.95;4.28;;;;;;;17.17;74.75;100892.28;3458830;84;98956;-87
2022/10/05 09:50:22;;;;;;;8.10;3.67;;;;;;;17.49;74.06;100869.16;3452165;85;34809;-86
2022/10/05 09:56:07;;;;;;;8.10;3.90;;;;;;;17.75;70.56;100871.28;3437512;84;98579;-86
2022/10/05 10:01:37;;;;;;;9.03;3.77;;;;;;;17.79;72.36;100869.84;3458472;84;34917;-86
2022/10/05 10:07:03;;;;;;;10.93;4.08;;;;;;;17.96;70.41;100872.44;3470650;83;98747;-86
2022/10/05 10:12:28;;;;;;;9.10;4.12;;;;;;;18.20;69.69;100860.18;3436958;84;35510;-87
2022/10/05 10:17:49;;;;;;;7.67;3.80;;;;;;;18.25;68.81;100863.13;3451608;83;98802;-88
2022/10/05 10:23:16;;;;;;;8.90;3.65;;;;;;;18.21;68.35;100860.98;3474809;84;34854;-87
2022/10/05 10:29:07;;;;;;;8.25;3.95;;;;;;;18.41;69.93;100859.93;3470305;83;98779;-85
2022/10/05 10:34:45;;;;;;;7.53;3.20;;;;;;;18.76;68.38;100869.78;3462878;83;98990;-86
2022/10/05 10:40:19;;;;;;;11.68;4.30;;;;;;;18.83;68.18;100854.33;3465620;84;35136;-85
2022/10/05 10:46:01;;;;;;;9.53;3.50;;;;;;;18.77;65.36;100857.41;3455359;83;99034;-85
2022/10/05 10:51:54;;;;;;;6.97;3.52;;;;;;;18.82;66.62;100851.36;3467208;84;34929;-86
2022/10/05 10:57:31;;;;;;;9.70;3.75;;;;;;;18.76;66.37;100838.52;3461955;83;99007;-86
2022/10/05 11:02:52;;;;;;;7.60;2.95;;;;;;;18.75;65.20;100831.95;3462166;84;34835;-86
2022/10/05 11:08:15;;;;;;;11.33;4.08;;;;;;;18.74;65.26;100824.19;3456590;84;98426;-86
2022/10/05 11:13:41;;;;;;;7.87;3.65;;;;;;;18.61;63.84;100840.53;3456392;85;34882;-88
2022/10/05 11:18:53;;;;;;;6.67;2.77;;;;;;;18.59;64.70;100824.21;3453705;84;25955;-88
2022/10/05 11:24:17;;;;;;;6.60;3.08;;;;;;;18.58;64.59;100844.17;3443008;84;99064;-85
2022/10/05 11:30:05;;;;;;;9.00;2.85;;;;;;;18.53;64.53;100846.81;3442003;85;36340;-85
2022/10/05 11:35:37;;;;;;;8.30;2.98;;;;;;;18.55;65.04;100846.39;3447466;84;99110;-85
2022/10/05 11:41:02;;;;;;;9.13;2.80;;;;;;;18.70;65.04;100844.36;3454714;85;34844;-86
2022/10/05 11:46:35;;;;;;;9.25;2.77;;;;;;;18.70;64.80;100836.61;3453080;84;98835;-85
2022/10/05 11:52:07;;;;;;;7.72;3.30;;;;;;;18.71;64.69;100834.81;3461271;85;34846;-84
2022/10/05 11:57:36;;;;;;;6.78;3.00;;;;;;;18.70;64.97;100829.02;3443340;84;98752;-86
2022/10/05 12:02:48;;;;;;;6.75;3.05;;;;;;;18.81;65.78;100815.70;3461001;84;34750;-85
2022/10/05 12:08:23;;;;;;;5.83;3.00;;;;;;;18.91;65.22;100805.59;3469148;84;98730;-84
2022/10/05 12:13:44;;;;;;;9.90;3.30;;;;;;;18.83;64.98;100809.11;3468164;84;34859;-85
2022/10/05 12:18:59;;;;;;;7.17;3.35;;;;;;;18.80;65.01;100786.86;3478616;84;35965;-88
2022/10/05 12:24:36;;;;;;;8.77;3.50;;;;;;;18.93;65.44;100783.64;3477848;84;98973;-86
2022/10/05 12:29:45;;;;;;;5.55;2.70;;;;;;;18.93;64.41;100781.65;3477664;84;26001;-87
2022/10/05 12:35:02;;;;;;;7.40;2.75;;;;;;;18.85;63.50;100773.20;3470299;83;98964;-87
2022/10/05 12:40:20;;;;;;;9.08;2.62;;;;;;;18.85;63.62;100766.86;3470535;83;35581;-85
2022/10/05 12:45:45;;;;;;;8.55;2.80;;;;;;;18.90;64.39;100771.33;3460801;83;98842;-86
2022/10/05 12:50:54;;;;;;;7.90;2.60;;;;;;;19.00;64.38;100763.39;3470267;84;34863;-86
2022/10/05 12:56:15;;;;;;;7.35;2.75;;;;;;;19.01;63.71;100760.00;3443361;84;98923;-86
2022/10/05 13:01:37;;;;;;;5.95;2.52;;;;;;;19.04;63.57;100761.92;3452653;84;34907;-87
2022/10/05 13:07:14;;;;;;;6.70;3.05;;;;;;;19.03;63.81;100764.53;3444708;83;99031;-86
2022/10/05 13:12:28;;;;;;;8.98;3.33;;;;;;;18.99;64.42;100756.83;3454430;84;34861;-86
2022/10/05 13:17:40;;;;;;;8.20;2.77;;;;;;;19.02;64.92;100739.25;3457757;83;98729;-86
2022/10/05 13:22:49;;;;;;;11.08;2.80;;;;;;;19.02;64.89;100735.84;3477979;84;34837;-86
2022/10/05 13:28:09;;;;;;;8.93;3.55;;;;;;;19.07;65.41;100734.58;3471235;83;98773;-87
2022/10/05 13:33:49;;;;;;;7.87;2.90;;;;;;;19.09;65.56;100727.95;3454594;84;34912;-88
2022/10/05 13:39:04;;;;;;;17.37;3.50;;;;;;;19.12;66.09;100732.07;3460183;84;34860;-87
2022/10/05 13:44:16;;;;;;;8.73;3.52;;;;;;;19.17;66.14;100723.80;3458657;83;99120;-87
2022/10/05 13:49:42;;;;;;;11.03;3.83;;;;;;;19.12;65.75;100713.16;3460957;84;35841;-87
2022/10/05 13:55:09;;;;;;;9.33;3.92;;;;;;;19.08;65.91;100706.23;3466024;83;99060;-87
2022/10/05 14:00:22;;;;;;;9.15;3.70;;;;;;;19.10;66.25;100704.41;3476456;84;34892;-88
2022/10/05 14:05:29;;;;;;;10.35;4.10;;;;;;;19.15;66.69;100698.34;3459644;83;99032;-86
2022/10/05 14:10:45;;;;;;;9.35;3.67;;;;;;;19.14;66.39;100696.14;3458444;84;34883;-87
2022/10/05 14:16:20;;;;;;;11.50;4.35;;;;;;;19.09;66.83;100696.67;3467051;83;98948;-86
2022/10/05 14:21:29;;;;;;;11.48;4.72;;;;;;;19.04;67.19;100701.34;3476996;84;34907;-88
2022/10/05 14:26:34;;;;;;;6.90;2.85;;;;;;;19.02;67.47;100700.97;3463707;84;99097;-87
2022/10/05 14:31:36;;;;;;;10.25;3.50;;;;;;;18.97;67.68;100696.50;3474952;84;34837;-87
2022/10/05 14:36:42;;;;;;;10.78;4.25;;;;;;;18.96;67.87;100689.36;3465239;84;98950;-87
2022/10/05 14:41:45;;;;;;;6.28;2.83;;;;;;;18.98;67.94;100692.50;3470691;84;35396;-86
2022/10/05 14:47:01;;;;;;;6.92;2.85;;;;;;;19.00;67.96;100686.67;3460227;84;98820;-86
2022/10/05 14:52:33;;;;;;;8.88;3.47;;;;;;;19.00;67.88;100680.29;3458288;84;26591;-86
2022/10/05 14:57:55;;;;;;;11.63;4.17;;;;;;;19.00;67.68;100678.30;3460268;84;98580;-86
2022/10/05 15:03:34;;;;;;;10.65;4.10;;;;;;;18.92;67.71;100666.31;3462210;84;34864;-86
2022/10/05 15:09:23;;;;;;;8.43;3.20;;;;;;;18.89;67.83;100675.52;3453297;85;98868;-85
2022/10/05 15:14:30;;;;;;;8.10;3.25;;;;;;;18.86;68.06;100666.63;3446344;85;98832;-85
2022/10/05 15:20:16;;;;;;;9.05;3.20;;;;;;;18.88;68.25;100663.59;3459230;85;35040;-86
2022/10/05 15:25:31;;;;;;;11.22;3.45;;;;;;;18.82;68.09;100654.75;3456181;84;98946;-86
2022/10/05 15:30:40;;;;;;;9.35;3.65;;;;;;;18.79;68.24;100648.62;3443824;85;25869;-87
2022/10/05 15:35:59;;;;;;;9.65;4.62;;;;;;;18.75;68.47;100652.09;3444376;84;98877;-85
2022/10/05 15:41:14;;;;;;;8.05;3.50;;;;;;;18.72;68.48;100648.76;3460471;85;34947;-85
2022/10/05 15:46:30;;;;;;;9.73;3.85;;;;;;;18.64;68.48;100646.70;3443784;85;98542;-87
2022/10/05 15:51:45;;;;;;;;;;;;;;;18.53;68.53;100639.77;3447040;84;26394;-85
2022/10/05 15:56:56;;;;;;;9.00;3.52;;;;;;;18.43;68.56;100642.12;3451451;84;84963;-87
2022/10/05 16:02:04;;;;;;;11.12;3.67;;;;;;;18.29;69.10;100636.75;3454406;84;34856;-86
2022/10/05 16:12:41;;;;;;;12.58;3.90;;;;;;;18.05;69.83;100629.60;3467906;84;35518;-86
2022/10/05 16:18:08;;;;;;;9.88;3.85;;;;;;;17.93;70.21;100635.77;3457332;84;98841;-87
2022/10/05 16:23:18;;;;;;;;;;;;;;;17.81;70.56;100637.72;3486263;84;26202;-88
2022/10/05 16:28:37;;;;;;;25.90;13.78;;;;;;;17.66;71.25;100634.36;3462643;84;84786;-87
2022/10/05 16:34:06;;;;;;;25.08;11.68;;;;;;;17.56;71.23;100636.69;3456006;84;34919;-86
2022/10/05 16:39:27;;;;;;;20.72;10.20;;;;;;;17.42;71.58;100632.72;3470167;84;35296;-86
2022/10/05 16:44:39;;;;;;;18.37;9.43;;;;;;;17.23;72.18;100634.72;3460085;84;99258;-88
2022/10/05 16:49:52;;;;;;;14.98;6.42;;;;;;;17.01;72.96;100634.02;3459417;83;34891;-87
2022/10/05 16:54:58;;;;;;;46.25;19.67;;;;;;;16.83;73.54;100644.53;3470818;84;99185;-88
2022/10/05 17:00:19;;;;;;;20.82;9.80;;;;;;;16.64;74.17;100651.50;3473175;84;26507;-88
2022/10/05 17:05:54;;;;;;;16.97;8.13;;;;;;;16.46;74.66;100652.25;3457095;83;99034;-87
2022/10/05 17:11:33;;;;;;;15.45;7.65;;;;;;;16.29;75.20;100662.12;3465207;84;34849;-87
2022/10/05 17:17:01;;;;;;;19.52;11.33;;;;;;;16.10;75.67;100655.72;3463311;83;98962;-88
2022/10/05 17:22:12;;;;;;;21.55;13.38;;;;;;;15.92;76.08;100656.45;3477190;84;34863;-87
2022/10/05 17:27:34;;;;;;;17.82;8.78;;;;;;;15.71;76.41;100653.81;3462198;84;99144;-88
2022/10/05 17:32:38;;;;;;;20.15;8.40;;;;;;;15.58;76.69;100660.42;3456649;84;34913;-87
2022/10/05 17:37:42;;;;;;;13.95;6.80;;;;;;;15.47;76.99;100664.46;3460222;83;98499;-87
2022/10/05 17:42:47;;;;;;;17.25;8.25;;;;;;;15.38;77.38;100658.55;3462635;84;34921;-87
2022/10/05 17:48:05;;;;;;;15.18;7.35;;;;;;;15.27;77.57;100655.00;3448769;84;98603;-86
2022/10/05 17:59:06;;;;;;;15.08;8.90;;;;;;;15.11;78.17;100647.74;3456768;84;34869;-87
2022/10/05 18:04:21;;;;;;;14.85;8.50;;;;;;;15.01;78.20;100643.02;3453325;83;98967;-88
2022/10/05 18:09:29;;;;;;;16.52;7.90;;;;;;;14.93;78.36;100647.80;3460835;84;34922;-86
2022/10/05 18:15:04;;;;;;;13.98;7.15;;;;;;;14.89;78.42;100648.39;3465792;84;99014;-86
2022/10/05 18:20:26;;;;;;;15.15;7.92;;;;;;;14.81;78.56;100637.14;3478109;84;34890;-86
2022/10/05 18:26:00;;;;;;;16.42;8.23;;;;;;;14.76;78.94;100635.36;3446467;83;99171;-87
2022/10/05 18:31:13;;;;;;;15.43;8.38;;;;;;;14.68;79.41;100628.28;3474940;84;34821;-86
2022/10/05 18:36:37;;;;;;;16.42;8.93;;;;;;;14.57;79.60;100627.52;3461204;83;98986;-87
2022/10/05 18:41:58;;;;;;;17.25;8.58;;;;;;;14.47;79.74;100629.70;3462660;84;35761;-86
2022/10/05 18:47:23;;;;;;;15.23;8.05;;;;;;;14.37;79.58;100639.61;3456133;83;98994;-87
2022/10/05 18:52:34;;;;;;;16.35;8.10;;;;;;;14.29;79.47;100640.02;3434614;84;34847;-87
2022/10/05 18:57:40;;;;;;;13.43;7.00;;;;;;;14.21;79.86;100637.84;3469925;83;98763;-87
2022/10/05 19:02:59;;;;;;;15.35;8.25;;;;;;;14.19;80.48;100650.45;3478982;84;34996;-87
2022/10/05 19:08:38;;;;;;;18.57;9.88;;;;;;;14.09;79.93;100650.66;3464359;83;99088;-88
2022/10/05 19:13:49;;;;;;;15.38;8.35;;;;;;;14.00;79.82;100652.25;3478369;84;32997;-87
2022/10/05 19:19:22;;;;;;;19.80;8.93;;;;;;;13.90;80.11;100650.26;3474984;84;35955;-87
2022/10/05 19:24:47;;;;;;;17.10;9.30;;;;;;;13.81;80.05;100652.02;3459006;84;98995;-87
2022/10/05 19:30:19;;;;;;;17.37;10.30;;;;;;;13.74;80.37;100658.91;3479571;84;34872;-87
2022/10/05 19:35:46;;;;;;;18.73;8.65;;;;;;;13.71;80.78;100657.52;3462899;83;99391;-87
2022/10/05 19:41:14;;;;;;;;;;;;;;;13.65;81.29;100662.66;3460423;84;26243;-88
2022/10/05 19:46:41;;;;;;;;;;;;;;;13.53;81.48;100661.62;3476416;83;84907;-88
2022/10/05 19:51:49;;;;;;;15.35;7.00;;;;;;;13.48;81.72;100669.52;3483215;84;25982;-88
2022/10/05 19:56:52;;;;;;;17.85;8.10;;;;;;;13.42;81.32;100675.23;3476831;83;99203;-89
2022/10/05 20:01:56;;;;;;;15.38;8.33;;;;;;;13.32;81.74;100680.92;3480160;84;34853;-88
2022/10/05 20:06:59;;;;;;;13.32;7.35;;;;;;;13.32;81.74;100680.92;3460243;83;98642;-87
2022/10/05 20:12:00;;;;;;;12.68;6.30;;;;;;;13.27;82.63;100686.83;3454054;84;35438;-88
2022/10/05 20:22:47;;;;;;;12.93;6.97;;;;;;;13.21;83.02;100699.44;3445873;85;34783;-88
2022/10/05 20:27:53;;;;;;;13.67;7.77;;;;;;;13.11;83.20;100705.70;3452071;84;98665;-88
2022/10/05 20:32:58;;;;;;;12.58;6.33;;;;;;;13.05;83.89;100709.20;3453257;85;34819;-87
2022/10/05 20:37:59;;;;;;;15.68;8.45;;;;;;;12.98;84.01;100708.57;3445569;84;99031;-89
2022/10/05 20:43:00;;;;;;;15.80;7.60;;;;;;;12.91;83.90;100713.25;3438755;85;30092;-88
2022/10/05 20:48:02;;;;;;;12.97;7.87;;;;;;;12.83;84.36;100713.80;3456458;84;98698;-88
2022/10/05 20:53:07;;;;;;;13.63;7.30;;;;;;;12.76;84.57;100713.73;3449328;85;31081;-88
2022/10/05 20:58:07;;;;;;;15.30;7.62;;;;;;;12.73;85.01;100717.85;3442821;84;98836;-89
2022/10/05 21:03:09;;;;;;;14.13;7.97;;;;;;;12.66;85.29;100709.53;3450127;84;26466;-89
2022/10/05 21:08:09;;;;;;;16.00;8.70;;;;;;;12.62;85.30;100707.32;3462328;84;98848;-88
2022/10/05 21:13:10;;;;;;;15.83;8.83;;;;;;;12.57;85.55;100708.48;3468200;83;28738;-88
2022/10/05 21:18:11;;;;;;;13.80;7.63;;;;;;;12.52;85.72;100719.88;3460364;84;99008;-88
2022/10/05 21:23:12;;;;;;;15.00;8.10;;;;;;;12.50;86.06;100718.09;3485986;83;32640;-88
2022/10/05 21:28:13;;;;;;;15.07;7.20;;;;;;;12.46;86.03;100725.55;3471799;83;98811;-88
2022/10/05 21:33:14;;;;;;;16.10;8.30;;;;;;;12.43;86.30;100729.67;3471995;84;32442;-88
2022/10/05 21:38:14;;;;;;;14.65;7.97;;;;;;;12.40;86.60;100729.84;3477677;84;98650;-88
2022/10/05 21:43:16;;;;;;;14.20;7.33;;;;;;;12.39;87.20;100737.12;3456095;84;27680;-88
2022/10/05 21:48:17;;;;;;;14.78;7.40;;;;;;;12.38;87.06;100741.05;3455542;83;98986;-88
2022/10/05 21:53:23;;;;;;;15.27;7.60;;;;;;;12.34;87.48;100737.47;3458189;84;27220;-88
2022/10/05 21:58:26;;;;;;;14.58;7.47;;;;;;;12.32;87.51;100743.97;3482573;84;98850;-88
2022/10/05 22:03:27;;;;;;;12.15;7.33;;;;;;;12.26;87.41;100742.13;3470063;84;32476;-88
2022/10/05 22:08:31;;;;;;;16.03;7.73;;;;;;;12.22;87.97;100742.67;3454980;83;98968;-88
2022/10/05 22:13:40;;;;;;;19.00;8.95;;;;;;;12.19;88.24;100746.20;3467152;84;33071;-88
2022/10/05 22:18:42;;;;;;;16.57;8.70;;;;;;;12.15;88.27;100736.32;3456258;84;32554;-88
2022/10/05 22:23:45;;;;;;;18.48;9.63;;;;;;;12.09;88.67;100739.19;3436442;84;99023;-88
2022/10/05 22:28:46;;;;;;;14.07;8.43;;;;;;;12.07;88.82;100747.06;3467393;84;32444;-88
2022/10/05 22:33:47;;;;;;;16.62;8.53;;;;;;;12.04;89.05;100743.09;3466024;83;98883;-88
2022/10/05 22:38:48;;;;;;;17.63;9.50;;;;;;;12.02;89.17;100736.37;3478840;83;27666;-86
2022/10/05 22:43:50;;;;;;;16.13;8.00;;;;;;;12.00;89.45;100748.38;3462258;84;98806;-86
2022/10/05 22:48:50;;;;;;;15.83;8.70;;;;;;;11.96;89.38;100757.20;3463425;84;25767;-87
2022/10/05 22:53:51;;;;;;;17.13;8.30;;;;;;;11.92;89.58;100747.51;3453456;83;98870;-87
2022/10/05 22:58:52;;;;;;;16.27;9.70;;;;;;;11.89;89.61;100752.98;3466580;83;25840;-87
2022/10/05 23:03:54;;;;;;;16.50;8.87;;;;;;;11.80;89.52;100750.53;3465047;84;99076;-87
2022/10/05 23:08:55;;;;;;;18.50;10.27;;;;;;;11.73;89.76;100751.03;3456573;84;26572;-87
2022/10/05 23:13:56;;;;;;;16.87;9.87;;;;;;;11.69;90.02;100754.33;3454247;83;98895;-87
2022/10/05 23:18:57;;;;;;;17.60;9.70;;;;;;;11.63;90.22;100757.21;3452635;85;26169;-87
2022/10/05 23:23:58;;;;;;;17.02;9.50;;;;;;;11.57;90.42;100756.73;3441316;83;99031;-87
2022/10/05 23:28:59;;;;;;;17.03;9.67;;;;;;;11.50;91.30;100758.61;3456643;85;26135;-86
2022/10/05 23:34:00;;;;;;;17.37;9.48;;;;;;;11.46;91.52;100761.89;3455551;85;99032;-87
2022/10/05 23:39:01;;;;;;;19.70;10.63;;;;;;;11.44;91.84;100758.73;3448371;85;33274;-86
2022/10/05 23:44:02;;;;;;;17.07;9.53;;;;;;;11.44;92.43;100761.48;3448677;84;99174;-87
2022/10/05 23:49:02;;;;;;;16.53;9.03;;;;;;;11.45;93.90;100770.73;3451866;84;33231;-87
2022/10/05 23:54:03;;;;;;;18.57;10.40;;;;;;;11.48;92.76;100774.70;3458804;84;98643;-87
2022/10/05 23:59:04;;;;;;;17.70;9.40;;;;;;;11.48;93.16;100781.59;3456622;84;33236;-87
